Time;durP1;ratioP1;P1;durP2;ratioP2;P2;SDS_P1;SDS_P2;PMS_P1;PMS_P2;Temp;Humidity;BMP_temperature;BMP_pressure;BME280_temperature;BME280_humidity;BME280_pressure;Samples;Min_cycle;Max_cycle;Signal;HPM_P1;HPM_P2
2022/09/12 00:00:45;;;;;;;3.83;3.40;;;;;;;14.99;73.58;94609.50;5092711;28;20023;-72
2022/09/12 00:03:10;;;;;;;4.53;3.25;;;;;;;14.86;72.97;94591.63;5107676;28;20517;-72
2022/09/12 00:05:45;;;;;;;3.97;3.47;;;;;;;14.82;74.41;94610.41;5117155;28;20050;-72
2022/09/12 00:08:11;;;;;;;5.05;3.25;;;;;;;14.82;73.87;94615.63;5117395;28;20500;-72
2022/09/12 00:10:41;;;;;;;5.47;3.20;;;;;;;14.83;73.98;94622.53;5127936;28;20042;-72
2022/09/12 00:13:07;;;;;;;4.20;3.63;;;;;;;14.81;73.83;94624.47;5123180;28;20100;-72
2022/09/12 00:15:37;;;;;;;5.07;3.13;;;;;;;14.74;73.70;94622.47;5129532;28;20027;-73
2022/09/12 00:18:02;;;;;;;4.78;3.05;;;;;;;14.80;73.20;94625.44;5129727;28;20054;-72
2022/09/12 00:20:28;;;;;;;4.53;2.88;;;;;;;14.71;73.43;94628.03;5108506;28;20031;-72
2022/09/12 00:22:53;;;;;;;4.13;2.80;;;;;;;14.64;73.89;94628.81;5120332;28;20042;-72
2022/09/12 00:25:19;;;;;;;3.33;2.75;;;;;;;14.65;74.02;94633.03;5110139;28;20028;-72
2022/09/12 00:27:44;;;;;;;5.28;2.70;;;;;;;14.40;74.38;94639.91;5125777;28;20050;-72
2022/09/12 00:30:10;;;;;;;5.35;3.50;;;;;;;14.42;74.83;94630.94;5130879;27;20050;-72
2022/09/12 00:32:35;;;;;;;3.65;3.35;;;;;;;14.40;74.20;94642.53;5130154;27;20037;-72
2022/09/12 00:35:01;;;;;;;4.72;3.17;;;;;;;14.37;73.51;94637.59;5108080;28;20038;-72
2022/09/12 00:37:27;;;;;;;4.50;3.40;;;;;;;14.52;74.43;94638.72;5131522;27;20027;-72
2022/09/12 00:39:52;;;;;;;4.00;3.60;;;;;;;14.59;74.14;94638.91;5130074;27;20030;-72
2022/09/12 00:42:18;;;;;;;3.78;3.05;;;;;;;14.63;73.82;94638.44;5095866;28;20042;-72
2022/09/12 00:44:46;;;;;;;4.18;3.47;;;;;;;14.45;72.65;94637.66;5114299;28;20023;-72
2022/09/12 00:47:26;;;;;;;4.15;3.50;;;;;;;14.51;72.44;94647.47;5096314;28;20036;-72
2022/09/12 00:50:10;;;;;;;4.05;3.25;;;;;;;14.57;72.50;94636.47;5113987;27;20111;-72
2022/09/12 00:52:40;;;;;;;5.13;4.05;;;;;;;14.60;73.74;94637.91;5113088;28;20126;-72
2022/09/12 00:55:09;;;;;;;5.10;3.55;;;;;;;14.64;73.42;94636.66;5126104;27;20066;-72
2022/09/12 00:57:40;;;;;;;4.75;3.78;;;;;;;14.62;74.64;94636.78;5113205;27;20036;-72
2022/09/12 01:00:16;;;;;;;4.28;3.50;;;;;;;14.68;73.75;94638.81;5113092;28;20028;-72
2022/09/12 01:02:42;;;;;;;4.60;3.80;;;;;;;14.63;73.98;94635.03;5114408;28;20039;-72
2022/09/12 01:05:07;;;;;;;4.88;3.70;;;;;;;14.59;73.94;94625.84;5079346;28;20036;-72
2022/09/12 01:07:36;;;;;;;3.85;3.28;;;;;;;14.61;73.84;94624.69;5078822;28;20059;-72
2022/09/12 01:10:04;;;;;;;4.07;3.17;;;;;;;14.62;72.89;94634.19;5112553;28;20035;-72
2022/09/12 01:12:30;;;;;;;4.13;3.55;;;;;;;14.55;72.50;94624.53;5095740;28;20513;-73
2022/09/12 01:14:55;;;;;;;3.53;3.22;;;;;;;14.51;72.29;94619.56;5095464;28;20030;-73
2022/09/12 01:17:21;;;;;;;4.60;3.10;;;;;;;14.46;71.87;94608.75;5112409;28;20063;-72
2022/09/12 01:20:23;;;;;;;3.92;2.90;;;;;;;14.45;71.31;94608.91;5112500;28;20459;-72
2022/09/12 01:22:51;;;;;;;3.35;2.78;;;;;;;14.38;71.77;94606.09;5114868;27;20039;-72
2022/09/12 01:25:38;;;;;;;3.72;2.78;;;;;;;14.31;71.87;94605.06;5112223;27;20088;-72
2022/09/12 01:28:23;;;;;;;4.63;2.70;;;;;;;14.35;71.99;94605.56;5095392;28;20043;-72
2022/09/12 01:31:03;;;;;;;4.15;2.63;;;;;;;14.31;70.81;94610.31;5112407;27;20035;-72
2022/09/12 01:34:03;;;;;;;3.63;2.67;;;;;;;14.20;70.05;94610.56;5111545;28;20067;-72
2022/09/12 01:36:33;;;;;;;4.38;3.08;;;;;;;14.19;72.17;94619.38;5112011;28;20031;-72
2022/09/12 01:39:20;;;;;;;3.35;2.83;;;;;;;14.01;72.87;94627.25;5120810;27;20038;-72
2022/09/12 01:42:17;;;;;;;2.95;2.65;;;;;;;14.00;72.07;94618.59;5133640;27;20713;-72
2022/09/12 01:44:47;;;;;;;3.10;2.65;;;;;;;13.90;72.32;94614.44;5132763;27;20114;-72
2022/09/12 01:47:18;;;;;;;4.18;2.50;;;;;;;13.86;73.31;94616.53;5110256;28;20028;-72
2022/09/12 01:50:07;;;;;;;3.78;2.70;;;;;;;13.80;72.68;94610.13;5111325;28;20486;-72
2022/09/12 01:52:38;;;;;;;4.10;2.40;;;;;;;13.69;72.58;94610.38;5079377;28;20035;-72
2022/09/12 01:55:09;;;;;;;3.70;2.47;;;;;;;13.60;73.38;94612.09;5128261;27;20027;-72
2022/09/12 01:57:37;;;;;;;4.38;2.80;;;;;;;13.39;73.18;94604.56;5132386;27;20027;-72
2022/09/12 02:00:07;;;;;;;3.45;2.75;;;;;;;13.49;73.29;94608.91;5115244;27;20110;-72
2022/09/12 02:02:36;;;;;;;3.50;3.00;;;;;;;13.48;73.35;94607.25;5119043;27;20028;-72
2022/09/12 02:05:25;;;;;;;2.90;2.40;;;;;;;13.42;73.13;94606.06;5095056;28;20031;-72
2022/09/12 02:07:57;;;;;;;2.83;2.50;;;;;;;13.21;74.06;94582.03;5109367;28;20071;-72
2022/09/12 02:10:24;;;;;;;3.35;2.78;;;;;;;13.32;73.57;94608.75;5095537;28;20115;-72
2022/09/12 02:12:55;;;;;;;3.10;2.70;;;;;;;13.32;73.07;94598.31;5077720;28;20038;-72
2022/09/12 02:15:23;;;;;;;3.05;2.45;;;;;;;13.28;73.26;94591.75;5094529;27;20031;-72
2022/09/12 02:17:49;;;;;;;4.63;2.50;;;;;;;13.36;72.77;94602.25;5077457;28;20056;-72
2022/09/12 02:20:33;;;;;;;3.75;2.45;;;;;;;13.35;73.21;94608.44;5111287;28;20030;-73
2022/09/12 02:22:58;;;;;;;3.67;2.22;;;;;;;13.26;72.87;94618.94;5094128;27;20050;-72
2022/09/12 02:25:24;;;;;;;2.95;2.30;;;;;;;13.12;72.89;94608.03;5097470;27;20496;-72
2022/09/12 02:27:53;;;;;;;3.53;2.30;;;;;;;13.13;73.51;94619.28;5114732;27;20039;-72
2022/09/12 02:30:19;;;;;;;2.65;2.15;;;;;;;13.11;73.08;94618.59;5110258;28;20067;-72
2022/09/12 02:33:06;;;;;;;3.85;2.20;;;;;;;13.04;74.19;94620.16;5076617;28;20040;-72
2022/09/12 02:35:44;;;;;;;3.60;2.40;;;;;;;13.07;73.35;94618.09;5109974;28;20015;-72
2022/09/12 02:38:10;;;;;;;6.85;3.38;;;;;;;13.08;73.41;94624.94;5085526;28;20039;-72
2022/09/12 02:40:36;;;;;;;5.78;2.10;;;;;;;13.08;73.65;94617.09;5110799;28;20032;-72
2022/09/12 02:43:02;;;;;;;2.53;1.85;;;;;;;13.09;73.92;94623.13;5128079;27;20493;-72
2022/09/12 02:45:28;;;;;;;2.85;2.17;;;;;;;13.01;73.18;94616.06;5127699;27;20119;-72
2022/09/12 02:47:57;;;;;;;2.67;2.08;;;;;;;13.11;73.31;94624.63;5095958;28;20119;-72
2022/09/12 02:50:22;;;;;;;3.78;2.40;;;;;;;13.11;72.77;94626.44;5108074;27;20027;-72
2022/09/12 02:52:48;;;;;;;4.68;2.13;;;;;;;13.13;72.94;94622.72;5089317;28;20039;-72
2022/09/12 02:55:13;;;;;;;3.67;2.25;;;;;;;13.09;72.67;94616.16;5093938;28;20077;-72
2022/09/12 02:57:39;;;;;;;3.60;1.95;;;;;;;13.03;72.39;94613.28;5093759;28;20039;-72
2022/09/12 03:00:05;;;;;;;2.30;1.90;;;;;;;13.00;72.79;94617.00;5110514;28;20072;-72
2022/09/12 03:03:08;;;;;;;4.28;2.58;;;;;;;12.96;73.67;94624.31;5093599;28;20040;-72
2022/09/12 03:05:34;;;;;;;3.67;2.03;;;;;;;12.88;73.26;94620.81;5111557;27;20055;-72
2022/09/12 03:08:15;;;;;;;3.33;2.13;;;;;;;12.89;73.86;94636.28;5080838;27;20058;-72
2022/09/12 03:10:54;;;;;;;2.90;1.90;;;;;;;12.88;73.54;94641.66;5132105;27;20138;-72
2022/09/12 03:13:39;;;;;;;3.72;2.17;;;;;;;12.88;73.63;94636.44;5108862;28;20036;-72
2022/09/12 03:16:36;;;;;;;3.80;1.88;;;;;;;12.61;73.97;94640.66;5088537;28;20032;-71
2022/09/12 03:19:32;;;;;;;2.53;1.90;;;;;;;12.72;74.73;94644.88;5108911;28;20024;-72
2022/09/12 03:22:13;;;;;;;3.10;2.10;;;;;;;12.78;74.99;94639.09;5110301;28;20630;-72
2022/09/12 03:24:57;;;;;;;3.00;2.23;;;;;;;12.84;74.73;94635.06;5110065;28;20031;-72
2022/09/12 03:27:32;;;;;;;2.63;2.13;;;;;;;12.86;75.07;94639.19;5092921;28;20390;-72
2022/09/12 03:29:57;;;;;;;4.43;2.25;;;;;;;12.86;73.21;94633.97;5095790;28;20035;-72
2022/09/12 03:32:43;;;;;;;2.83;2.53;;;;;;;12.94;73.71;94633.25;5112683;28;20042;-72
2022/09/12 03:35:09;;;;;;;2.95;2.10;;;;;;;12.88;73.58;94632.03;5130498;28;20030;-72
2022/09/12 03:37:35;;;;;;;2.60;2.10;;;;;;;13.01;73.58;94630.88;5113672;28;20031;-72
2022/09/12 03:40:01;;;;;;;3.95;3.03;;;;;;;12.94;74.07;94626.25;5110092;28;20031;-72
2022/09/12 03:42:26;;;;;;;4.50;2.40;;;;;;;13.00;73.71;94637.06;5093071;28;20055;-72
2022/09/12 03:44:51;;;;;;;2.90;2.45;;;;;;;13.02;73.37;94632.53;5111213;28;20019;-72
2022/09/12 03:47:17;;;;;;;2.50;2.10;;;;;;;13.02;73.26;94633.34;5126530;28;20485;-72
2022/09/12 03:49:42;;;;;;;3.55;2.50;;;;;;;12.83;74.38;94636.88;5110717;28;20673;-72
2022/09/12 03:52:08;;;;;;;2.90;2.30;;;;;;;12.91;73.65;94631.75;5109946;28;20436;-72
2022/09/12 03:54:33;;;;;;;4.45;2.38;;;;;;;12.85;73.45;94619.31;5109876;28;20039;-72
2022/09/12 03:56:59;;;;;;;2.88;2.30;;;;;;;12.92;73.39;94632.56;5124887;28;20038;-72
2022/09/12 03:59:24;;;;;;;4.70;2.80;;;;;;;12.93;73.52;94640.25;5130352;28;20030;-72
2022/09/12 04:01:50;;;;;;;4.05;2.67;;;;;;;12.95;73.25;94634.88;5130704;27;20039;-72
2022/09/12 04:04:15;;;;;;;3.55;2.80;;;;;;;12.90;73.75;94627.50;5131549;27;20031;-72
2022/09/12 04:06:41;;;;;;;5.45;3.42;;;;;;;12.90;73.92;94630.13;5111271;28;20035;-72
2022/09/12 04:09:07;;;;;;;3.28;2.40;;;;;;;12.80;73.82;94626.72;5126534;28;20186;-72
2022/09/12 04:11:34;;;;;;;2.92;2.45;;;;;;;12.81;73.83;94630.97;5130169;27;20481;-72
2022/09/12 04:14:00;;;;;;;3.63;2.40;;;;;;;12.72;73.93;94621.44;5130544;28;20461;-72
2022/09/12 04:16:25;;;;;;;6.65;2.72;;;;;;;12.90;74.16;94637.94;5091596;28;20035;-72
2022/09/12 04:18:51;;;;;;;3.00;2.58;;;;;;;12.78;74.69;94640.88;5094666;28;20418;-72
2022/09/12 04:21:17;;;;;;;3.35;2.38;;;;;;;12.84;74.57;94633.31;5113219;28;20106;-72
2022/09/12 04:23:43;;;;;;;3.63;2.50;;;;;;;12.91;74.49;94642.19;5080696;27;20035;-72
2022/09/12 04:26:08;;;;;;;4.57;2.80;;;;;;;12.91;73.53;94634.34;5096752;28;20416;-72
2022/09/12 04:28:35;;;;;;;4.35;2.80;;;;;;;12.86;74.40;94639.19;5101126;27;20505;-73
2022/09/12 04:31:22;;;;;;;3.28;2.85;;;;;;;12.93;74.16;94642.03;5118715;27;20030;-72
2022/09/12 04:33:52;;;;;;;3.72;3.28;;;;;;;12.82;74.64;94648.28;5124077;27;20046;-73
2022/09/12 04:36:18;;;;;;;3.27;2.93;;;;;;;12.97;74.86;94661.63;5115269;27;20023;-72
2022/09/12 04:38:44;;;;;;;3.40;3.10;;;;;;;12.71;74.38;94630.22;5116484;27;20077;-72
2022/09/12 04:41:14;;;;;;;5.72;3.00;;;;;;;13.01;75.28;94656.94;5123209;27;20027;-72
2022/09/12 04:43:39;;;;;;;5.07;2.88;;;;;;;12.96;74.41;94650.38;5119483;27;20073;-72
2022/09/12 04:46:06;;;;;;;3.70;3.30;;;;;;;13.02;73.62;94663.81;5127184;27;20113;-73
2022/09/12 04:48:32;;;;;;;6.00;4.10;;;;;;;13.14;74.76;94657.44;5107294;27;20126;-73
2022/09/12 04:51:12;;;;;;;4.35;3.45;;;;;;;13.14;74.06;94660.03;5112308;27;20026;-73
2022/09/12 04:53:38;;;;;;;4.10;3.70;;;;;;;13.23;73.98;94655.72;5113129;27;20503;-73
2022/09/12 04:56:05;;;;;;;4.05;3.28;;;;;;;13.23;74.33;94659.16;5130987;27;20261;-73
2022/09/12 04:58:30;;;;;;;4.07;3.30;;;;;;;13.34;73.93;94658.97;5099300;28;20054;-71
2022/09/12 05:01:02;;;;;;;4.20;3.50;;;;;;;13.48;73.24;94667.25;5099898;28;20025;-72
2022/09/12 05:03:27;;;;;;;5.13;3.97;;;;;;;13.57;73.13;94667.22;5152965;27;20051;-70
2022/09/12 05:05:53;;;;;;;4.70;3.70;;;;;;;13.69;71.97;94651.31;5147141;27;20461;-72
2022/09/12 05:08:18;;;;;;;4.60;3.83;;;;;;;13.92;71.75;94662.94;5131288;27;20097;-72
2022/09/12 05:10:44;;;;;;;4.22;3.83;;;;;;;14.13;71.55;94654.78;5098934;27;20054;-72
2022/09/12 05:13:09;;;;;;;4.15;3.28;;;;;;;14.35;71.60;94660.44;5133242;27;20038;-72
2022/09/12 05:15:35;;;;;;;6.22;3.72;;;;;;;14.68;70.40;94644.03;5116272;27;20031;-72
2022/09/12 05:18:00;;;;;;;5.22;3.33;;;;;;;15.13;66.39;94648.13;5138335;27;20489;-71
2022/09/12 05:20:25;;;;;;;3.50;3.03;;;;;;;15.15;64.21;94651.38;5155002;27;20473;-72
2022/09/12 05:22:51;;;;;;;4.93;3.60;;;;;;;15.42;65.84;94660.78;5136461;27;20031;-72
2022/09/12 05:25:16;;;;;;;4.35;3.22;;;;;;;15.67;65.27;94658.22;5155162;27;20027;-70
2022/09/12 05:27:42;;;;;;;5.78;3.30;;;;;;;15.64;63.75;94653.31;5099165;27;20416;-70
2022/09/12 05:30:08;;;;;;;3.63;3.25;;;;;;;15.63;66.67;94647.25;5112506;27;20035;-70
2022/09/12 05:32:34;;;;;;;3.85;3.45;;;;;;;15.47;64.23;94647.22;5112268;28;20040;-70
2022/09/12 05:34:59;;;;;;;4.68;3.60;;;;;;;15.34;64.73;94644.25;5133443;27;20079;-72
2022/09/12 05:37:25;;;;;;;4.78;3.63;;;;;;;15.37;65.77;94649.97;5150353;27;20401;-71
2022/09/12 05:39:51;;;;;;;5.53;4.20;;;;;;;15.42;64.65;94645.09;5132673;27;20019;-71
2022/09/12 05:42:17;;;;;;;4.50;3.92;;;;;;;15.40;68.87;94654.06;5130683;27;20031;-71
2022/09/12 05:44:42;;;;;;;5.78;4.30;;;;;;;15.56;68.76;94648.06;5133844;27;20281;-71
2022/09/12 05:47:10;;;;;;;4.30;3.80;;;;;;;15.67;64.82;94646.94;5126432;27;20038;-71
2022/09/12 05:49:36;;;;;;;5.95;4.00;;;;;;;15.75;66.91;94652.22;5118486;27;20027;-72
2022/09/12 05:52:02;;;;;;;5.35;3.50;;;;;;;15.95;66.84;94644.84;5132128;27;20028;-71
2022/09/12 05:54:27;;;;;;;4.72;3.40;;;;;;;16.02;67.53;94641.41;5133596;27;20027;-71
2022/09/12 05:56:53;;;;;;;5.32;3.35;;;;;;;16.16;67.93;94639.09;5135789;27;20130;-71
2022/09/12 05:59:20;;;;;;;3.90;3.38;;;;;;;16.18;65.05;94647.63;5153226;27;20030;-72
2022/09/12 06:01:45;;;;;;;3.47;3.10;;;;;;;16.31;67.08;94640.06;5152872;27;20076;-71
2022/09/12 06:04:11;;;;;;;6.80;3.63;;;;;;;16.28;63.53;94628.09;5142697;27;20031;-71
2022/09/12 06:06:43;;;;;;;4.20;3.42;;;;;;;16.20;64.79;94635.16;5133380;27;20033;-71
2022/09/12 06:09:09;;;;;;;5.32;3.60;;;;;;;16.23;65.30;94626.97;5116628;27;20487;-71
2022/09/12 06:11:36;;;;;;;5.30;4.10;;;;;;;16.17;64.38;94625.03;5116679;27;20028;-71
2022/09/12 06:14:01;;;;;;;5.43;4.40;;;;;;;16.16;63.97;94628.59;5098861;27;20027;-71
2022/09/12 06:16:28;;;;;;;5.18;4.68;;;;;;;16.17;64.96;94631.06;5085402;28;20035;-71
2022/09/12 06:18:55;;;;;;;5.43;4.57;;;;;;;16.26;63.87;94626.63;5113531;27;20049;-71
2022/09/12 06:21:21;;;;;;;5.43;4.90;;;;;;;16.45;62.74;94617.59;5114910;27;20039;-71
2022/09/12 06:23:47;;;;;;;8.23;4.90;;;;;;;16.65;62.24;94613.59;5114678;27;20050;-72
2022/09/12 06:26:12;;;;;;;6.25;4.75;;;;;;;16.85;62.19;94616.66;5116390;27;20028;-71
2022/09/12 06:28:39;;;;;;;4.65;4.25;;;;;;;17.14;60.08;94613.44;5110005;28;20050;-71
2022/09/12 06:31:06;;;;;;;4.55;4.15;;;;;;;17.20;58.87;94617.19;5110639;28;20459;-71
2022/09/12 06:33:35;;;;;;;4.85;3.92;;;;;;;17.29;58.50;94615.31;5110934;28;20104;-71
2022/09/12 06:36:05;;;;;;;4.18;3.78;;;;;;;17.52;57.70;94620.59;5077137;28;20020;-71
2022/09/12 06:38:31;;;;;;;5.63;4.00;;;;;;;17.68;56.97;94624.91;5094247;28;20027;-71
2022/09/12 06:40:56;;;;;;;4.47;4.07;;;;;;;17.73;55.42;94626.03;5093966;28;20386;-71
2022/09/12 06:43:22;;;;;;;4.20;3.80;;;;;;;18.01;55.00;94633.41;5093876;28;20409;-71
2022/09/12 06:45:48;;;;;;;4.55;4.15;;;;;;;18.21;54.89;94644.25;5110728;28;20100;-71
2022/09/12 06:48:14;;;;;;;5.72;4.13;;;;;;;18.30;55.11;94640.53;5110652;28;20053;-71
2022/09/12 06:50:39;;;;;;;4.18;3.78;;;;;;;18.36;54.67;94634.59;5110692;28;20024;-71
2022/09/12 06:53:04;;;;;;;5.00;3.92;;;;;;;18.24;53.92;94651.78;5093780;28;20039;-71
2022/09/12 06:55:30;;;;;;;6.20;4.05;;;;;;;18.41;54.00;94639.28;5111895;28;20019;-71
2022/09/12 06:57:55;;;;;;;4.28;3.80;;;;;;;18.51;54.79;94645.13;5110763;28;20043;-71
2022/09/12 07:00:21;;;;;;;5.13;3.67;;;;;;;18.42;53.30;94648.81;5112027;28;20382;-71
2022/09/12 07:02:47;;;;;;;4.85;4.30;;;;;;;18.16;54.50;94650.03;5112109;28;20035;-71
2022/09/12 07:05:13;;;;;;;4.50;4.10;;;;;;;17.96;54.75;94657.56;5110705;28;20397;-71
2022/09/12 07:07:39;;;;;;;4.78;4.28;;;;;;;18.09;55.39;94662.25;5110444;28;20100;-71
2022/09/12 07:10:05;;;;;;;4.43;3.88;;;;;;;17.94;55.39;94669.25;5110268;28;20027;-71
2022/09/12 07:12:31;;;;;;;4.95;4.07;;;;;;;17.74;55.14;94663.63;5111818;28;20047;-72
2022/09/12 07:14:56;;;;;;;4.68;4.28;;;;;;;17.75;56.13;94671.34;5110344;28;20039;-71
2022/09/12 07:17:22;;;;;;;4.32;3.92;;;;;;;17.82;56.05;94674.09;5111389;28;20421;-71
2022/09/12 07:19:47;;;;;;;5.00;4.25;;;;;;;17.82;55.67;94672.28;5110316;28;20027;-71
2022/09/12 07:22:14;;;;;;;4.30;3.90;;;;;;;17.94;55.72;94679.75;5111451;28;20055;-72
2022/09/12 07:24:40;;;;;;;4.47;3.90;;;;;;;17.95;55.50;94666.47;5110257;28;20032;-71
2022/09/12 07:27:05;;;;;;;4.30;3.90;;;;;;;18.21;56.07;94676.59;5111578;28;20031;-71
2022/09/12 07:29:31;;;;;;;7.00;4.28;;;;;;;18.26;55.39;94665.56;5110034;28;20039;-73
2022/09/12 07:31:56;;;;;;;5.15;3.75;;;;;;;18.20;55.23;94680.22;5110028;28;20096;-71
2022/09/12 07:34:22;;;;;;;4.40;3.60;;;;;;;18.18;54.35;94674.31;5110088;28;20035;-71
2022/09/12 07:36:47;;;;;;;4.32;3.88;;;;;;;18.15;53.94;94676.50;5111137;28;20035;-71
2022/09/12 07:39:13;;;;;;;5.75;4.55;;;;;;;18.19;53.69;94675.13;5111270;28;20073;-71
2022/09/12 07:41:38;;;;;;;4.60;4.10;;;;;;;18.07;52.93;94677.38;5093046;28;20040;-72
2022/09/12 07:44:05;;;;;;;4.70;4.30;;;;;;;18.24;53.16;94673.59;5093055;28;20032;-72
2022/09/12 07:46:31;;;;;;;4.75;4.35;;;;;;;18.16;52.92;94675.50;5093062;28;20036;-71
2022/09/12 07:48:58;;;;;;;5.05;4.55;;;;;;;18.21;53.83;94668.72;5109929;28;20324;-72
2022/09/12 07:51:24;;;;;;;6.88;4.68;;;;;;;18.24;54.49;94667.53;5076024;28;20043;-71
2022/09/12 07:53:50;;;;;;;5.32;4.82;;;;;;;18.24;53.23;94670.16;5111715;28;20484;-72
2022/09/12 07:56:16;;;;;;;5.20;4.70;;;;;;;18.43;52.26;94666.22;5080201;28;20126;-71
2022/09/12 07:58:42;;;;;;;4.53;4.03;;;;;;;18.49;52.16;94663.69;5097101;28;20028;-71
2022/09/12 08:01:19;;;;;;;5.03;4.50;;;;;;;18.52;51.99;94665.16;5115175;28;20032;-71
2022/09/12 08:03:46;;;;;;;5.20;4.70;;;;;;;18.67;51.86;94636.25;5114011;28;20031;-72
2022/09/12 08:06:12;;;;;;;5.55;4.53;;;;;;;18.98;49.91;94672.94;5096733;28;20042;-72
2022/09/12 08:08:38;;;;;;;7.75;4.53;;;;;;;18.96;50.00;94673.09;5096823;28;20513;-71
2022/09/12 08:11:05;;;;;;;5.32;4.82;;;;;;;18.85;49.78;94659.59;5113611;28;20084;-72
2022/09/12 08:13:32;;;;;;;4.85;4.45;;;;;;;19.08;51.02;94664.75;5113740;28;20031;-72
2022/09/12 08:15:58;;;;;;;4.88;4.47;;;;;;;19.39;50.28;94669.81;5096803;28;20055;-72
2022/09/12 08:18:27;;;;;;;5.55;3.80;;;;;;;19.39;47.59;94657.44;5096836;28;20469;-72
2022/09/12 08:21:00;;;;;;;4.50;4.00;;;;;;;19.55;48.84;94664.31;5097066;28;20035;-71
2022/09/12 08:23:27;;;;;;;5.35;3.97;;;;;;;19.77;48.56;94667.00;5113560;28;20024;-72
2022/09/12 08:25:57;;;;;;;4.93;4.05;;;;;;;19.94;47.99;94673.66;5096707;28;20095;-72
2022/09/12 08:28:24;;;;;;;4.85;3.65;;;;;;;20.02;48.78;94664.81;5097271;28;20027;-72
2022/09/12 08:30:49;;;;;;;4.88;3.90;;;;;;;20.18;47.03;94661.09;5079424;28;20039;-72
2022/09/12 08:33:15;;;;;;;4.20;3.80;;;;;;;20.35;47.33;94646.63;5114525;28;20481;-71
2022/09/12 08:35:40;;;;;;;4.00;3.60;;;;;;;20.45;48.14;94657.69;5114584;28;20020;-72
2022/09/12 08:38:06;;;;;;;5.72;3.35;;;;;;;20.49;46.91;94658.09;5114891;28;20055;-72
2022/09/12 08:40:32;;;;;;;3.70;3.40;;;;;;;20.57;47.60;94660.63;5096328;28;20057;-72
2022/09/12 08:43:30;;;;;;;5.75;3.60;;;;;;;20.41;46.28;94650.34;5113104;28;20080;-72
2022/09/12 08:46:05;;;;;;;5.20;3.00;;;;;;;20.71;46.04;94661.53;5090944;28;20040;-72
2022/09/12 08:48:30;;;;;;;4.53;2.95;;;;;;;20.65;46.96;94668.41;5079573;28;20088;-72
2022/09/12 08:50:55;;;;;;;3.40;3.05;;;;;;;20.55;46.26;94640.72;5112908;28;20031;-72
2022/09/12 08:53:22;;;;;;;8.75;3.30;;;;;;;20.65;46.76;94663.13;5095955;28;20036;-72
2022/09/12 08:55:58;;;;;;;3.40;3.10;;;;;;;20.45;46.31;94656.88;5095876;28;20159;-72
2022/09/12 08:58:23;;;;;;;4.63;2.75;;;;;;;20.57;46.00;94652.72;5112881;28;20027;-71
2022/09/12 09:01:27;;;;;;;3.10;2.80;;;;;;;20.39;45.58;94644.44;5095819;28;20027;-71
2022/09/12 09:04:11;;;;;;;4.28;2.72;;;;;;;20.11;46.20;94660.22;5113229;28;20031;-72
2022/09/12 09:06:41;;;;;;;4.70;2.78;;;;;;;20.12;46.40;94651.31;5111791;28;20027;-72
2022/09/12 09:09:24;;;;;;;3.92;2.97;;;;;;;20.15;47.00;94654.41;5113905;28;20084;-72
2022/09/12 09:11:56;;;;;;;3.33;3.03;;;;;;;20.12;46.68;94643.41;5112578;28;20169;-72
2022/09/12 09:14:48;;;;;;;5.00;3.13;;;;;;;20.07;46.82;94650.06;5113775;28;20032;-72
2022/09/12 09:17:19;;;;;;;3.90;3.40;;;;;;;19.90;47.38;94638.16;5112393;28;20525;-72
2022/09/12 09:20:23;;;;;;;6.53;3.70;;;;;;;19.81;45.98;94644.56;5095830;28;20043;-72
2022/09/12 09:23:01;;;;;;;3.70;3.40;;;;;;;19.91;46.18;94634.50;5109391;28;20062;-71
2022/09/12 09:25:42;;;;;;;4.38;3.97;;;;;;;19.92;46.35;94638.78;5080378;28;20039;-71
2022/09/12 09:28:15;;;;;;;4.80;4.20;;;;;;;19.65;46.82;94650.84;5114020;28;20020;-71
2022/09/12 09:30:41;;;;;;;5.88;4.00;;;;;;;19.48;46.93;94654.72;5095483;28;20153;-71
2022/09/12 09:33:09;;;;;;;4.43;4.03;;;;;;;19.51;47.23;94636.72;5078208;28;20035;-71
2022/09/12 09:36:12;;;;;;;4.80;3.80;;;;;;;19.38;47.47;94633.91;5095266;28;20034;-72
2022/09/12 09:39:03;;;;;;;4.40;4.00;;;;;;;19.30;47.86;94612.97;5097617;28;20043;-71
2022/09/12 09:42:03;;;;;;;6.15;4.10;;;;;;;19.70;47.31;94630.06;5093132;28;20031;-71
2022/09/12 09:44:29;;;;;;;4.07;3.70;;;;;;;19.84;46.77;94628.38;5093255;28;20073;-72
2022/09/12 09:46:55;;;;;;;4.35;3.78;;;;;;;19.87;46.62;94625.34;5094875;28;20027;-72
2022/09/12 09:49:20;;;;;;;5.90;3.80;;;;;;;19.96;45.93;94621.56;5111872;28;20046;-71
2022/09/12 09:51:46;;;;;;;3.92;3.58;;;;;;;20.23;45.96;94624.44;5078037;28;20028;-71
2022/09/12 09:54:22;;;;;;;4.05;3.67;;;;;;;20.25;46.28;94625.88;5094827;28;20024;-71
2022/09/12 09:56:47;;;;;;;4.18;3.78;;;;;;;20.31;46.11;94624.31;5094802;28;20039;-72
2022/09/12 09:59:17;;;;;;;4.40;3.70;;;;;;;20.33;45.10;94638.09;5094790;28;20515;-72
2022/09/12 10:01:56;;;;;;;7.68;3.60;;;;;;;20.24;45.15;94618.97;5113257;27;20073;-71
2022/09/12 10:04:29;;;;;;;4.00;3.60;;;;;;;20.49;45.89;94619.34;5112865;28;20028;-71
2022/09/12 10:06:59;;;;;;;3.70;3.40;;;;;;;20.66;45.21;94616.44;5078047;28;20048;-72
2022/09/12 10:09:26;;;;;;;4.20;3.70;;;;;;;20.81;44.54;94622.44;5094606;28;20032;-72
2022/09/12 10:11:52;;;;;;;5.05;3.90;;;;;;;20.76;44.06;94611.63;5077725;28;20024;-72
2022/09/12 10:14:37;;;;;;;4.63;3.80;;;;;;;20.87;44.30;94616.38;5094572;28;20508;-71
2022/09/12 10:17:28;;;;;;;4.05;3.65;;;;;;;21.00;43.98;94625.34;5110913;28;20059;-72
2022/09/12 10:19:54;;;;;;;5.22;3.38;;;;;;;20.87;44.27;94608.44;5112592;28;20493;-72
2022/09/12 10:22:25;;;;;;;4.82;3.83;;;;;;;20.85;42.85;94622.84;5094267;28;20047;-71
2022/09/12 10:24:55;;;;;;;4.30;3.70;;;;;;;20.93;43.83;94612.13;5111273;28;20019;-71
2022/09/12 10:27:22;;;;;;;4.65;3.67;;;;;;;21.01;43.62;94608.53;5111285;28;20039;-72
2022/09/12 10:29:53;;;;;;;5.10;3.55;;;;;;;21.15;43.46;94615.47;5094246;28;20027;-71
2022/09/12 10:32:28;;;;;;;;;;;;;;;21.10;43.57;94605.50;5111625;28;20058;-71
2022/09/12 10:35:01;;;;;;;4.20;3.67;;;;;;;21.20;43.28;94616.53;5111023;28;19941;-72
2022/09/12 10:37:38;;;;;;;4.65;4.00;;;;;;;21.08;43.55;94604.88;5094151;28;20040;-71
2022/09/12 10:40:05;;;;;;;5.40;4.18;;;;;;;20.98;43.55;94615.81;5110922;28;20538;-71
2022/09/12 10:42:50;;;;;;;5.05;4.28;;;;;;;21.20;44.56;94623.59;5111082;28;20669;-71
2022/09/12 10:45:20;;;;;;;4.85;4.45;;;;;;;21.32;43.23;94632.63;5110757;28;20069;-71
2022/09/12 10:47:46;;;;;;;4.65;4.25;;;;;;;21.08;42.30;94622.56;5110966;28;20570;-72
2022/09/12 10:50:19;;;;;;;4.47;4.07;;;;;;;21.14;42.58;94621.75;5094071;28;20042;-71
2022/09/12 10:52:45;;;;;;;5.10;4.50;;;;;;;21.19;43.13;94612.22;5094000;28;20027;-72
2022/09/12 10:55:14;;;;;;;5.03;4.60;;;;;;;21.25;42.80;94615.09;5093716;28;20019;-71
2022/09/12 10:58:01;;;;;;;4.82;4.43;;;;;;;21.32;43.59;94618.59;5110645;28;20047;-72
2022/09/12 11:00:29;;;;;;;5.45;4.72;;;;;;;21.38;43.31;94610.72;5110556;28;20055;-71
2022/09/12 11:03:19;;;;;;;5.28;4.60;;;;;;;21.47;43.93;94616.63;5077362;28;20416;-71
2022/09/12 11:05:55;;;;;;;5.90;4.00;;;;;;;21.30;41.60;94608.22;5110552;28;20024;-71
2022/09/12 11:08:43;;;;;;;4.65;4.25;;;;;;;21.32;41.89;94603.56;5111558;28;20059;-71
2022/09/12 11:11:27;;;;;;;4.93;4.53;;;;;;;21.23;42.46;94620.59;5110463;28;20058;-71
2022/09/12 11:13:58;;;;;;;5.03;4.57;;;;;;;20.88;43.20;94612.72;5111580;28;20493;-71
2022/09/12 11:16:42;;;;;;;4.82;4.28;;;;;;;20.72;42.52;94605.09;5111286;28;20028;-71
2022/09/12 11:19:13;;;;;;;5.03;4.25;;;;;;;20.87;43.24;94591.81;5110234;28;20071;-72
2022/09/12 11:21:57;;;;;;;5.72;4.60;;;;;;;20.85;44.00;94597.25;5111519;28;20470;-71
2022/09/12 11:24:37;;;;;;;4.80;4.40;;;;;;;20.92;42.51;94598.13;5111411;28;20032;-71
2022/09/12 11:27:25;;;;;;;5.25;4.30;;;;;;;20.89;41.86;94606.41;5093210;28;20096;-71
2022/09/12 11:29:53;;;;;;;4.90;4.40;;;;;;;20.76;42.30;94585.25;5111389;28;20031;-71
2022/09/12 11:32:22;;;;;;;5.70;5.10;;;;;;;20.85;43.35;94599.09;5111559;28;20032;-71
2022/09/12 11:34:48;;;;;;;5.50;5.00;;;;;;;20.84;43.07;94603.56;5111674;28;20039;-71
2022/09/12 11:37:29;;;;;;;5.50;4.80;;;;;;;20.80;43.04;94597.03;5111532;28;20095;-72
2022/09/12 11:39:55;;;;;;;5.57;5.07;;;;;;;20.78;42.85;94596.41;5111388;28;20020;-71
2022/09/12 11:42:32;;;;;;;4.80;4.40;;;;;;;20.94;41.96;94596.06;5110088;28;20042;-71
2022/09/12 11:45:06;;;;;;;4.80;4.40;;;;;;;20.78;42.28;94587.66;5093268;28;20028;-72
2022/09/12 11:47:33;;;;;;;5.25;4.72;;;;;;;20.86;43.32;94595.44;5093520;28;20536;-71
2022/09/12 11:49:58;;;;;;;5.53;5.00;;;;;;;20.89;43.93;94587.94;5076296;28;20032;-71